| Date | Time | Temp. (oF) | Dew Point (oF) | Rel. Hum. (%) | Press. (in.) | Wind Dir. | Wind Speed (mph) | Hourly Rainfall (in.) |
|
|---|---|---|---|---|---|---|---|---|---|
| 1 | 07/01 | 00:00 | 66 | 64 | 95 | 29.94 | S | 0 | 0.00 |
| 2 | 06/30 | 23:00 | 68 | 63 | 87 | 29.94 | SSE | 0 | 0.00 |
| 3 | 06/30 | 22:00 | 71 | 64 | 81 | 29.94 | SE | 0 | 0.00 |
| 4 | 06/30 | 21:00 | 74 | 65 | 76 | 29.94 | S | 0 | 0.00 |
| 5 | 06/30 | 20:00 | 77 | 65 | 67 | 29.92 | S | 7 | 0.00 |
| 6 | 06/30 | 19:00 | 79 | 61 | 56 | 29.90 | S | 3 | 0.00 |
| 7 | 06/30 | 18:00 | 80 | 61 | 54 | 29.91 | S | 6 | 0.00 |
| 8 | 06/30 | 17:00 | 82 | 61 | 51 | 29.92 | S | 1 | 0.00 |
| 9 | 06/30 | 16:00 | 81 | 62 | 54 | 29.93 | SSE | 0 | 0.00 |
| 10 | 06/30 | 15:00 | 82 | 62 | 52 | 29.93 | SSE | 4 | 0.00 |
| 11 | 06/30 | 14:00 | 82 | 64 | 55 | 29.95 | S | 7 | 0.00 |
| 12 | 06/30 | 13:00 | 81 | 65 | 60 | 29.96 | ESE | 4 | 0.00 |
| 13 | 06/30 | 12:00 | 78 | 64 | 63 | 29.98 | SSE | 4 | 0.00 |
| 14 | 06/30 | 11:00 | 76 | 66 | 72 | 29.99 | S | 0 | 0.00 |
| 15 | 06/30 | 10:00 | 74 | 64 | 73 | 29.98 | S | 4 | 0.00 |
| 16 | 06/30 | 09:00 | 68 | 65 | 93 | 29.98 | WSW | 3 | 0.00 |
| 17 | 06/30 | 08:00 | 63 | 63 | 100 | 29.98 | S | 3 | 0.00 |
| 18 | 06/30 | 07:00 | 58 | 58 | 100 | 29.97 | N | 0 | 0.00 |
| 19 | 06/30 | 06:00 | 57 | 57 | 100 | 29.96 | SSE | 0 | 0.00 |
| 20 | 06/30 | 05:00 | 58 | 58 | 100 | 29.95 | SSE | 0 | 0.00 |
| 21 | 06/30 | 04:00 | 60 | 59 | 100 | 29.96 | SSE | 0 | 0.00 |
| 22 | 06/30 | 03:00 | 62 | 61 | 98 | 29.95 | SW | 0 | 0.00 |
| 23 | 06/30 | 02:00 | 63 | 61 | 96 | 29.94 | SW | 1 | 0.00 |
| 24 | 06/30 | 01:00 | 62 | 62 | 100 | 29.93 | SSW | 0 | 0.00 |